createdAt,value
2019-01-02T00:00:36.706Z,3.93
2019-01-02T00:03:06.075Z,5.10
2019-01-02T00:05:35.778Z,4.60
2019-01-02T00:08:04.846Z,4.07
2019-01-02T00:10:34.458Z,3.77
2019-01-02T00:13:03.790Z,4.07
2019-01-02T00:15:33.602Z,4.00
2019-01-02T00:18:02.921Z,3.50
2019-01-02T00:20:31.921Z,4.37
2019-01-02T00:23:00.838Z,5.13
2019-01-02T00:25:30.075Z,4.30
2019-01-02T00:27:59.354Z,3.80
2019-01-02T00:30:28.582Z,4.30
2019-01-02T00:32:58.181Z,4.47
2019-01-02T00:35:27.522Z,4.23
2019-01-02T00:37:57.214Z,4.27
2019-01-02T00:40:26.209Z,3.90
2019-01-02T00:42:55.394Z,4.47
2019-01-02T00:45:24.645Z,4.33
2019-01-02T00:47:53.957Z,3.80
2019-01-02T00:50:23.282Z,3.73
2019-01-02T00:52:52.605Z,4.13
2019-01-02T00:55:21.933Z,3.67
2019-01-02T00:57:51.257Z,4.70
2019-01-02T01:00:21.619Z,3.57
2019-01-02T01:02:51.828Z,4.10
2019-01-02T01:05:21.026Z,3.23
2019-01-02T01:07:49.935Z,3.50
2019-01-02T01:10:19.170Z,3.20
2019-01-02T01:12:48.545Z,4.33
2019-01-02T01:15:17.449Z,2.80
2019-01-02T01:17:46.365Z,3.10
2019-01-02T01:20:16.729Z,3.83
2019-01-02T01:22:46.053Z,3.87
2019-01-02T01:25:15.054Z,3.37
2019-01-02T01:27:44.285Z,3.67
2019-01-02T01:30:13.990Z,3.20
2019-01-02T01:32:43.317Z,3.03
2019-01-02T01:35:12.486Z,3.97
2019-01-02T01:37:43.645Z,3.60
2019-01-02T01:40:12.883Z,2.77
2019-01-02T01:42:42.206Z,2.83
2019-01-02T01:45:11.198Z,2.87
2019-01-02T01:47:40.425Z,2.80
2019-01-02T01:50:09.878Z,2.87
2019-01-02T01:52:39.112Z,2.93
2019-01-02T01:55:08.109Z,3.00
2019-01-02T01:57:37.390Z,2.40
2019-01-02T02:00:08.008Z,2.83
2019-01-02T02:02:37.286Z,2.50
2019-01-02T02:05:07.276Z,2.60
2019-01-02T02:07:36.497Z,2.03
2019-01-02T02:10:09.949Z,2.70
2019-01-02T02:12:38.867Z,2.30
2019-01-02T02:15:10.232Z,2.60
2019-01-02T02:17:41.117Z,2.27
2019-01-02T02:20:12.154Z,2.10
2019-01-02T02:22:41.138Z,2.30
2019-01-02T02:25:11.572Z,2.33
2019-01-02T02:27:40.824Z,2.50
2019-01-02T02:30:11.706Z,2.13
2019-01-02T02:32:40.678Z,2.00
2019-01-02T02:35:10.457Z,2.10
2019-01-02T02:37:39.445Z,1.80
2019-01-02T02:40:09.825Z,2.30
2019-01-02T02:42:39.133Z,2.07
2019-01-02T02:45:09.631Z,2.03
2019-01-02T02:47:38.854Z,3.10
2019-01-02T02:50:09.606Z,2.03
2019-01-02T02:52:38.508Z,1.90
2019-01-02T02:55:10.082Z,2.27
2019-01-02T02:57:39.069Z,2.20
2019-01-02T03:00:11.799Z,2.50
2019-01-02T03:02:40.704Z,2.33
2019-01-02T03:05:11.677Z,1.90
2019-01-02T03:07:41.046Z,2.23
2019-01-02T03:10:11.392Z,1.70
2019-01-02T03:12:40.669Z,2.50
2019-01-02T03:15:10.562Z,1.67
2019-01-02T03:17:39.801Z,2.10
2019-01-02T03:20:11.557Z,2.83
2019-01-02T03:22:40.965Z,2.47
2019-01-02T03:25:12.290Z,1.67
2019-01-02T03:27:41.985Z,1.70
2019-01-02T03:30:16.913Z,1.80
2019-01-02T03:32:46.459Z,2.10
2019-01-02T03:35:16.129Z,1.77
2019-01-02T03:37:45.126Z,2.33
2019-01-02T03:40:14.832Z,1.93
2019-01-02T03:42:43.831Z,2.00
2019-01-02T03:45:14.100Z,1.67
2019-01-02T03:47:43.325Z,1.80
2019-01-02T03:50:13.281Z,1.73
2019-01-02T03:52:42.186Z,2.43
2019-01-02T03:55:11.085Z,1.70
2019-01-02T03:57:39.990Z,1.90
2019-01-02T04:00:13.142Z,1.60
2019-01-02T04:02:42.046Z,1.73
2019-01-02T04:05:12.113Z,2.00
2019-01-02T04:07:41.580Z,1.90
2019-01-02T04:10:11.759Z,2.27
2019-01-02T04:12:40.663Z,1.57
2019-01-02T04:15:09.898Z,2.23
2019-01-02T04:17:38.897Z,1.53
2019-01-02T04:20:07.852Z,1.90
2019-01-02T04:22:36.771Z,2.60
2019-01-02T04:25:07.834Z,1.87
2019-01-02T04:27:36.830Z,2.20
2019-01-02T04:30:07.273Z,2.00
2019-01-02T04:32:36.169Z,1.83
2019-01-02T04:35:06.364Z,2.33
2019-01-02T04:37:35.686Z,1.67
2019-01-02T04:40:07.195Z,1.97
2019-01-02T04:42:36.448Z,2.57
2019-01-02T04:45:08.290Z,1.82
2019-01-02T04:47:37.285Z,2.90
2019-01-02T04:50:10.011Z,2.30
2019-01-02T04:52:38.911Z,2.10
2019-01-02T04:55:08.143Z,2.00
2019-01-02T04:57:37.137Z,2.33
2019-01-02T05:00:10.534Z,1.90
2019-01-02T05:02:39.495Z,1.60
2019-01-02T05:05:08.398Z,2.17
2019-01-02T05:07:37.301Z,1.90
2019-01-02T05:10:07.691Z,1.90
2019-01-02T05:12:36.595Z,1.60
2019-01-02T05:15:08.563Z,1.92
2019-01-02T05:17:37.550Z,1.80
2019-01-02T05:20:07.993Z,2.37
2019-01-02T05:22:37.231Z,1.90
2019-01-02T05:25:06.886Z,2.30
2019-01-02T05:27:35.794Z,2.90
2019-01-02T05:30:11.421Z,2.47
2019-01-02T05:32:40.532Z,1.83
2019-01-02T05:35:10.018Z,1.53
2019-01-02T05:37:39.021Z,1.90
2019-01-02T05:40:09.458Z,2.00
2019-01-02T05:42:38.361Z,1.83
2019-01-02T05:45:07.538Z,1.60
2019-01-02T05:47:36.770Z,1.50
2019-01-02T05:50:08.086Z,1.60
2019-01-02T05:52:37.073Z,1.77
2019-01-02T05:55:07.141Z,1.60
2019-01-02T05:57:36.469Z,1.63
2019-01-02T06:00:11.723Z,1.42
2019-01-02T06:02:40.718Z,2.10
2019-01-02T06:05:09.945Z,1.60
2019-01-02T06:07:38.942Z,1.63
2019-01-02T06:10:09.221Z,1.47
2019-01-02T06:12:38.122Z,1.70
2019-01-02T06:15:08.795Z,1.60
2019-01-02T06:17:37.689Z,1.63
2019-01-02T06:20:08.138Z,1.90
2019-01-02T06:22:37.042Z,1.80
2019-01-02T06:25:06.450Z,1.40
2019-01-02T06:27:35.433Z,1.80
2019-01-02T06:30:06.751Z,1.50
2019-01-02T06:32:35.986Z,1.57
2019-01-02T06:35:07.048Z,1.50
2019-01-02T06:37:36.037Z,1.80
2019-01-02T06:40:08.646Z,2.10
2019-01-02T06:42:37.634Z,1.50
2019-01-02T06:45:09.615Z,1.93
2019-01-02T06:47:38.598Z,1.70
2019-01-02T06:50:14.048Z,1.70
2019-01-02T06:52:43.039Z,1.33
2019-01-02T06:55:12.278Z,2.03
2019-01-02T06:57:41.602Z,2.03
2019-01-02T07:00:16.794Z,1.40
2019-01-02T07:02:46.121Z,1.50
2019-01-02T07:05:15.101Z,1.60
2019-01-02T07:07:44.013Z,1.80
2019-01-02T07:10:12.916Z,1.67
2019-01-02T07:12:41.813Z,1.43
2019-01-02T07:15:11.050Z,1.50
2019-01-02T07:17:40.370Z,1.70
2019-01-02T07:20:10.233Z,1.60
2019-01-02T07:22:39.463Z,1.80
2019-01-02T07:25:08.726Z,1.70
2019-01-02T07:27:37.634Z,1.47
2019-01-02T07:30:10.897Z,1.83
2019-01-02T07:32:39.802Z,1.77
2019-01-02T07:35:25.300Z,1.60
2019-01-02T07:38:19.855Z,1.53
2019-01-02T07:41:19.014Z,1.80
2019-01-02T07:44:05.801Z,2.20
2019-01-02T07:46:38.881Z,1.63
2019-01-02T07:49:12.201Z,1.70
2019-01-02T07:51:42.647Z,1.40
2019-01-02T07:54:21.870Z,1.43
2019-01-02T07:56:52.297Z,1.50
2019-01-02T07:59:22.746Z,1.80
2019-01-02T08:01:59.014Z,1.80
2019-01-02T08:04:32.261Z,2.03
2019-01-02T08:07:18.958Z,1.50
2019-01-02T08:09:55.310Z,1.87
2019-01-02T08:12:34.405Z,1.67
2019-01-02T08:15:04.841Z,1.60
2019-01-02T08:17:35.277Z,1.77
2019-01-02T08:20:15.334Z,1.97
2019-01-02T08:23:05.474Z,1.70
2019-01-02T08:25:38.728Z,2.20
2019-01-02T08:28:25.491Z,1.90
2019-01-02T08:30:58.861Z,1.93
2019-01-02T08:33:37.018Z,1.60
2019-01-02T08:36:07.549Z,1.80
2019-01-02T08:38:55.770Z,1.93
2019-01-02T08:41:32.161Z,1.90
2019-01-02T08:44:05.539Z,1.80
2019-01-02T08:46:58.591Z,1.97
2019-01-02T08:49:29.113Z,2.27
2019-01-02T08:52:15.991Z,1.63
2019-01-02T08:55:04.621Z,1.70
2019-01-02T08:57:45.494Z,1.97
2019-01-02T09:00:38.802Z,2.30
2019-01-02T09:03:15.010Z,1.80
2019-01-02T09:06:05.236Z,1.30
2019-01-02T09:08:53.694Z,2.20
2019-01-02T09:11:40.237Z,2.20
2019-01-02T09:14:10.686Z,2.63
2019-01-02T09:16:55.933Z,1.80
2019-01-02T09:19:56.741Z,2.00
2019-01-02T09:22:41.111Z,1.50
2019-01-02T09:25:21.573Z,1.23
2019-01-02T09:27:53.974Z,1.93
2019-01-02T09:30:40.970Z,1.93
2019-01-02T09:33:16.017Z,2.27
2019-01-02T09:35:54.120Z,2.13
2019-01-02T09:38:49.119Z,2.53
2019-01-02T09:41:33.360Z,2.00
2019-01-02T09:44:11.278Z,2.40
2019-01-02T09:46:43.679Z,2.07
2019-01-02T09:49:54.718Z,2.60
2019-01-02T09:52:38.873Z,2.30
2019-01-02T09:55:20.153Z,1.43
2019-01-02T09:58:04.376Z,2.13
2019-01-02T10:01:06.821Z,2.30
2019-01-02T10:03:56.808Z,2.00
2019-01-02T10:06:31.949Z,2.17
2019-01-02T10:09:16.840Z,1.90
2019-01-02T10:11:55.065Z,2.17
2019-01-02T10:14:33.151Z,2.10
2019-01-02T10:17:14.353Z,1.70
2019-01-02T10:20:04.725Z,1.83
2019-01-02T10:22:39.900Z,2.03
2019-01-02T10:25:20.361Z,2.00
2019-01-02T10:28:18.613Z,2.17
2019-01-02T10:31:11.355Z,1.70
2019-01-02T10:33:55.595Z,2.27
2019-01-02T10:36:39.705Z,2.03
2019-01-02T10:39:28.540Z,2.10
2019-01-02T10:42:15.783Z,2.20
2019-01-02T10:44:59.745Z,2.20
2019-01-02T10:47:48.433Z,1.70
2019-01-02T10:50:32.757Z,1.97
2019-01-02T10:53:05.150Z,1.87
2019-01-02T10:55:52.148Z,2.03
2019-01-02T10:58:36.431Z,2.07
2019-01-02T11:01:16.301Z,1.60
2019-01-02T11:04:05.298Z,1.87
2019-01-02T11:07:00.067Z,2.00
2019-01-02T11:09:47.065Z,1.93
2019-01-02T11:12:23.530Z,2.13
2019-01-02T11:15:13.658Z,1.73
2019-01-02T11:18:11.534Z,1.80
2019-01-02T11:20:59.930Z,1.67
2019-01-02T11:23:48.589Z,1.50
2019-01-02T11:26:32.693Z,1.93
2019-01-02T11:29:19.794Z,1.63
2019-01-02T11:32:03.805Z,1.60
2019-01-02T11:34:43.073Z,1.67
2019-01-02T11:37:20.558Z,1.90
2019-01-02T11:40:17.414Z,1.70
2019-01-02T11:43:03.961Z,1.60
2019-01-02T11:45:32.955Z,2.13
2019-01-02T11:48:01.858Z,1.73
2019-01-02T11:50:31.123Z,1.77
2019-01-02T11:53:00.413Z,2.10
2019-01-02T11:55:29.738Z,2.17
2019-01-02T11:57:59.066Z,1.50
2019-01-02T12:00:28.385Z,1.93
2019-01-02T12:02:57.711Z,1.57
2019-01-02T12:05:27.030Z,2.07
2019-01-02T12:07:56.349Z,1.70
2019-01-02T12:10:25.419Z,1.43
2019-01-02T12:12:54.646Z,1.63
2019-01-02T12:15:23.645Z,1.60
2019-01-02T12:17:52.617Z,1.63
2019-01-02T12:20:21.850Z,1.33
2019-01-02T12:22:51.242Z,2.50
2019-01-02T12:25:20.570Z,1.50
2019-01-02T12:27:49.894Z,1.60
2019-01-02T12:30:19.213Z,1.43
2019-01-02T12:32:48.529Z,1.47
2019-01-02T12:35:17.854Z,2.07
2019-01-02T12:37:46.845Z,1.70
2019-01-02T12:40:15.749Z,2.00
2019-01-02T12:42:44.653Z,1.60
2019-01-02T12:45:13.561Z,1.73
2019-01-02T12:47:42.457Z,1.30
2019-01-02T12:50:11.689Z,1.40
2019-01-02T12:52:41.018Z,1.53
2019-01-02T12:55:10.373Z,2.20
2019-01-02T12:57:39.362Z,1.87
2019-01-02T13:00:11.406Z,1.60
2019-01-02T13:02:53.646Z,2.20
2019-01-02T13:05:24.081Z,1.67
2019-01-02T13:08:00.201Z,1.40
2019-01-02T13:10:32.510Z,1.53
2019-01-02T13:13:13.574Z,1.60
2019-01-02T13:15:53.059Z,1.40
2019-01-02T13:18:32.390Z,1.30
2019-01-02T13:21:02.842Z,1.83
2019-01-02T13:23:36.170Z,1.97
2019-01-02T13:26:09.613Z,2.00
2019-01-02T13:28:40.056Z,1.40
2019-01-02T13:31:21.190Z,1.60
2019-01-02T13:34:02.110Z,1.50
2019-01-02T13:36:32.638Z,1.30
2019-01-02T13:39:04.241Z,1.57
2019-01-02T13:41:37.625Z,1.93
2019-01-02T13:44:10.714Z,1.40
2019-01-02T13:46:52.907Z,1.50
2019-01-02T13:49:42.010Z,1.30
2019-01-02T13:52:11.001Z,2.00
2019-01-02T13:54:40.249Z,1.70
2019-01-02T13:57:09.245Z,1.50
2019-01-02T13:59:38.472Z,1.40
2019-01-02T14:02:07.469Z,1.57
2019-01-02T14:04:36.384Z,3.17
2019-01-02T14:07:05.283Z,2.00
2019-01-02T14:09:34.185Z,1.63
2019-01-02T14:12:03.166Z,1.77
2019-01-02T14:14:32.070Z,1.40
2019-01-02T14:17:01.814Z,1.30
2019-01-02T14:19:31.041Z,1.20
2019-01-02T14:22:00.357Z,1.53
2019-01-02T14:24:29.677Z,1.73
2019-01-02T14:26:58.996Z,2.10
2019-01-02T14:29:27.991Z,2.07
2019-01-02T14:32:21.274Z,1.83
2019-01-02T14:34:50.164Z,1.60
2019-01-02T14:37:19.083Z,1.33
2019-01-02T14:39:48.314Z,1.40
2019-01-02T14:42:17.636Z,1.67
2019-01-02T14:44:46.954Z,2.00
2019-01-02T14:47:17.437Z,1.50
2019-01-02T14:49:46.871Z,1.60
2019-01-02T14:52:15.864Z,1.33
2019-01-02T14:54:44.766Z,1.53
2019-01-02T14:57:13.669Z,1.57
2019-01-02T14:59:42.897Z,1.60
2019-01-02T15:02:11.889Z,1.30
2019-01-02T15:04:40.789Z,1.63
2019-01-02T15:07:10.026Z,1.40
2019-01-02T15:09:39.346Z,1.60
2019-01-02T15:12:08.795Z,1.77
2019-01-02T15:14:38.078Z,1.40
2019-01-02T15:17:07.154Z,1.33
2019-01-02T15:19:36.067Z,1.47
2019-01-02T15:22:05.292Z,1.60
2019-01-02T15:24:34.422Z,1.57
2019-01-02T15:27:03.564Z,1.67
2019-01-02T15:29:32.818Z,1.17
2019-01-02T15:32:02.147Z,1.03
2019-01-02T15:34:31.157Z,1.70
2019-01-02T15:37:00.413Z,1.33
2019-01-02T15:39:29.397Z,1.50
2019-01-02T15:41:58.292Z,2.00
2019-01-02T15:44:27.215Z,1.93
2019-01-02T15:46:56.446Z,1.40
2019-01-02T15:49:25.456Z,1.70
2019-01-02T15:51:54.371Z,1.20
2019-01-02T15:54:23.270Z,1.27
2019-01-02T15:56:52.521Z,1.23
2019-01-02T15:59:21.845Z,1.10
2019-01-02T16:01:52.136Z,1.57
2019-01-02T16:04:21.178Z,1.30
2019-01-02T16:06:50.450Z,1.30
2019-01-02T16:09:19.446Z,1.27
2019-01-02T16:11:48.358Z,1.27
2019-01-02T16:14:17.257Z,1.30
2019-01-02T16:16:46.489Z,1.30
2019-01-02T16:19:15.490Z,1.40
2019-01-02T16:21:44.385Z,1.10
2019-01-02T16:24:13.284Z,1.37
2019-01-02T16:26:42.304Z,1.20
2019-01-02T16:29:11.600Z,1.53
2019-01-02T16:31:40.926Z,1.80
2019-01-02T16:34:10.246Z,1.20
2019-01-02T16:36:39.238Z,1.23
2019-01-02T16:39:08.755Z,1.30
2019-01-02T16:41:37.745Z,1.63
2019-01-02T16:44:06.982Z,1.50
2019-01-02T16:46:36.318Z,1.33
2019-01-02T16:49:05.309Z,1.17
2019-01-02T16:51:34.552Z,1.53
2019-01-02T16:54:03.546Z,1.50
2019-01-02T16:56:32.457Z,1.30
2019-01-02T16:59:01.356Z,1.23
2019-01-02T17:01:30.589Z,1.30
2019-01-02T17:03:59.578Z,1.60
2019-01-02T17:06:28.494Z,1.10
2019-01-02T17:08:57.468Z,1.40
2019-01-02T17:11:26.371Z,1.50
2019-01-02T17:13:55.601Z,1.23
2019-01-02T17:16:24.589Z,1.30
2019-01-02T17:18:53.562Z,0.93
2019-01-02T17:21:22.805Z,1.37
2019-01-02T17:23:51.798Z,1.50
2019-01-02T17:26:21.038Z,1.33
2019-01-02T17:28:50.393Z,1.30
2019-01-02T17:31:19.753Z,1.50
2019-01-02T17:33:49.079Z,1.00
2019-01-02T17:36:18.070Z,1.30
2019-01-02T17:38:47.306Z,1.20
2019-01-02T17:41:16.633Z,1.30
2019-01-02T17:43:45.941Z,1.30
2019-01-02T17:46:15.266Z,1.13
2019-01-02T17:48:44.581Z,1.23
2019-01-02T17:51:13.581Z,1.43
2019-01-02T17:53:42.821Z,1.40
2019-01-02T17:56:12.141Z,1.50
2019-01-02T17:58:41.457Z,1.50
2019-01-02T18:01:10.781Z,1.73
2019-01-02T18:03:40.102Z,1.50
2019-01-02T18:06:11.151Z,1.40
2019-01-02T18:08:40.616Z,1.70
2019-01-02T18:11:09.964Z,1.50
2019-01-02T18:13:39.281Z,1.50
2019-01-02T18:16:08.634Z,1.63
2019-01-02T18:18:37.621Z,1.97
2019-01-02T18:21:06.858Z,1.73
2019-01-02T18:23:35.854Z,2.10
2019-01-02T18:26:04.762Z,1.80
2019-01-02T18:28:33.996Z,1.57
2019-01-02T18:31:02.986Z,2.03
2019-01-02T18:33:32.217Z,1.50
2019-01-02T18:36:01.222Z,1.93
2019-01-02T18:38:30.458Z,1.70
2019-01-02T18:40:59.792Z,1.90
2019-01-02T18:43:29.113Z,1.80
2019-01-02T18:45:58.446Z,1.50
2019-01-02T18:48:27.761Z,1.70
2019-01-02T18:50:57.093Z,1.70
2019-01-02T18:53:26.415Z,1.70
2019-01-02T18:55:55.738Z,1.87
2019-01-02T18:58:25.062Z,1.83
2019-01-02T19:00:54.385Z,1.67
2019-01-02T19:03:23.710Z,1.50
2019-01-02T19:05:53.043Z,1.67
2019-01-02T19:08:22.369Z,1.93
2019-01-02T19:10:51.700Z,2.43
2019-01-02T19:13:20.699Z,1.67
2019-01-02T19:15:49.610Z,1.70
2019-01-02T19:18:18.514Z,1.40
2019-01-02T19:20:47.417Z,1.57
2019-01-02T19:23:16.330Z,1.90
2019-01-02T19:25:45.556Z,2.10
2019-01-02T19:28:14.555Z,1.73
2019-01-02T19:30:43.457Z,1.83
2019-01-02T19:33:12.689Z,1.73
2019-01-02T19:35:41.682Z,2.07
2019-01-02T19:38:10.922Z,1.93
2019-01-02T19:40:39.933Z,1.53
2019-01-02T19:43:08.835Z,1.60
2019-01-02T19:45:38.076Z,1.80
2019-01-02T19:48:07.393Z,1.60
2019-01-02T19:50:36.713Z,1.67
2019-01-02T19:53:06.039Z,1.73
2019-01-02T19:55:35.357Z,1.93
2019-01-02T19:58:04.690Z,1.67
2019-01-02T20:00:34.009Z,1.80
2019-01-02T20:03:03.330Z,1.50
2019-01-02T20:05:32.321Z,1.90
2019-01-02T20:08:01.563Z,1.60
2019-01-02T20:10:30.887Z,1.70
2019-01-02T20:13:00.213Z,1.80
2019-01-02T20:15:29.534Z,2.00
2019-01-02T20:17:58.868Z,1.97
2019-01-02T20:20:27.866Z,2.10
2019-01-02T20:22:57.089Z,1.80
2019-01-02T20:25:26.447Z,1.83
2019-01-02T20:27:55.814Z,1.73
2019-01-02T20:30:24.810Z,2.07
2019-01-02T20:32:53.721Z,2.10
2019-01-02T20:35:22.621Z,1.60
2019-01-02T20:37:51.525Z,1.63
2019-01-02T20:40:20.511Z,2.10
2019-01-02T20:42:49.751Z,2.10
2019-01-02T20:45:19.121Z,1.63
2019-01-02T20:47:48.493Z,2.07
2019-01-02T20:50:17.554Z,2.10
2019-01-02T20:52:46.477Z,1.90
2019-01-02T20:55:15.718Z,1.90
2019-01-02T20:57:45.038Z,1.80
2019-01-02T21:00:14.033Z,1.90
2019-01-02T21:02:48.190Z,2.10
2019-01-02T21:05:17.504Z,1.90
2019-01-02T21:07:46.493Z,2.33
2019-01-02T21:10:17.039Z,1.93
2019-01-02T21:12:46.538Z,1.80
2019-01-02T21:15:15.842Z,2.10
2019-01-02T21:17:44.833Z,2.20
2019-01-02T21:20:13.740Z,2.00
2019-01-02T21:22:42.638Z,2.03
2019-01-02T21:25:11.671Z,2.13
2019-01-02T21:27:40.905Z,1.93
2019-01-02T21:30:10.572Z,1.77
2019-01-02T21:32:39.948Z,2.30
2019-01-02T21:35:09.014Z,1.97
2019-01-02T21:37:37.924Z,1.97
2019-01-02T21:40:07.597Z,1.70
2019-01-02T21:42:36.833Z,2.17
2019-01-02T21:45:06.380Z,2.10
2019-01-02T21:47:35.374Z,1.90
2019-01-02T21:50:06.041Z,1.80
2019-01-02T21:52:35.357Z,1.90
2019-01-02T21:55:05.851Z,1.97
2019-01-02T21:57:34.745Z,1.67
2019-01-02T22:00:07.519Z,1.80
2019-01-02T22:02:40.258Z,2.20
2019-01-02T22:05:07.532Z,2.00
2019-01-02T22:07:36.769Z,2.20
2019-01-02T22:10:07.942Z,1.90
2019-01-02T22:12:37.271Z,1.90
2019-01-02T22:15:09.040Z,2.17
2019-01-02T22:17:38.361Z,2.00
2019-01-02T22:20:07.435Z,1.83
2019-01-02T22:22:36.347Z,1.73
2019-01-02T22:25:06.622Z,2.35
2019-01-02T22:27:35.955Z,2.30
2019-01-02T22:30:07.330Z,2.40
2019-01-02T22:32:36.657Z,1.93
2019-01-02T22:35:06.593Z,2.20
2019-01-02T22:37:35.922Z,2.33
2019-01-02T22:40:07.207Z,2.08
2019-01-02T22:42:36.539Z,2.40
2019-01-02T22:45:06.409Z,2.62
2019-01-02T22:47:35.735Z,1.83
2019-01-02T22:50:07.909Z,2.20
2019-01-02T22:52:37.231Z,2.17
2019-01-02T22:55:06.553Z,1.93
2019-01-02T22:57:35.878Z,2.37
2019-01-02T23:00:09.275Z,1.97
2019-01-02T23:02:40.239Z,2.70
2019-01-02T23:05:11.202Z,3.60
2019-01-02T23:07:42.163Z,2.10
2019-01-02T23:10:28.875Z,2.13
2019-01-02T23:13:05.525Z,1.87
2019-01-02T23:15:48.569Z,2.00
2019-01-02T23:18:28.538Z,2.20
2019-01-02T23:20:59.169Z,2.07
2019-01-02T23:23:32.742Z,2.40
2019-01-02T23:26:06.457Z,2.97
2019-01-02T23:28:37.430Z,2.10
2019-01-02T23:31:14.106Z,2.13
2019-01-02T23:33:44.743Z,2.27
2019-01-02T23:36:21.349Z,2.30
2019-01-02T23:38:57.842Z,2.53
2019-01-02T23:41:46.602Z,2.50
2019-01-02T23:44:20.245Z,2.40
2019-01-02T23:47:02.694Z,2.20
2019-01-02T23:49:42.594Z,2.30
2019-01-02T23:52:22.303Z,2.23
2019-01-02T23:55:01.971Z,1.93
2019-01-02T23:57:49.126Z,2.10
